Latest Weather Observations for Low Isles

IDQ60801

Issued at 6:05 am EST Friday 24 October 2014 (issued every 30 minutes, with the page automatically refreshed every 10 minutes)

About weather observations | Map of weather stations | Latest weather observations for QLD | Other Formats
Station Details ID: 031037 Name: LOW ISLES LIGHTHOUSE Lat: -16.38 Lon: 145.56 Height: 2.9 m
Data from the previous 72 hours. | See also: Recent months at Low Isles
Date/Time
EST
Temp
°C
App
Temp
°C
Dew
Point
Rel
Hum
%
Delta-T
°C
Wind Press
QNH
hPa
Press
MSL
hPa
Rain
since 9 am
mm
Dir
 
Spd
km/h
Gust
km/h
Spd
kts
Gust
kts
24/06:00am 23.9 21.6 19.4 76 2.9 ESE 30 35 16 19 1017.1 1017.0 1.0
24/05:30am 23.7 21.4 19.4 77 2.7 ESE 30 39 16 21 1016.7 - 1.0
24/05:00am 23.7 20.9 19.0 75 3.0 ESE 32 41 17 22 1016.5 - 1.0
24/04:30am 23.6 20.8 19.1 76 2.9 ESE 32 39 17 21 1016.2 - 1.0
24/04:00am 23.5 20.8 19.2 77 2.7 ESE 32 39 17 21 1016.0 - 1.0
24/03:30am 23.0 19.9 18.5 76 2.8 ESE 32 39 17 21 1015.9 - 1.0
24/03:00am 23.0 21.3 19.8 82 2.1 ESE 28 33 15 18 1015.8 1015.7 1.0
24/02:30am 22.4 20.1 20.1 87 1.5 ESE 32 39 17 21 1016.1 - 1.0
24/02:10am 23.1 17.7 19.1 78 2.5 E 46 52 25 28 1016.4 - 0.2
24/02:08am 23.8 21.6 19.5 77 2.8 ESE 30 48 16 26 1016.4 - 0.2
24/02:00am 23.9 21.7 19.6 77 2.8 ESE 30 37 16 20 1016.3 - 0.2
24/01:30am 24.0 21.3 19.3 75 3.0 ESE 32 41 17 22 1016.7 - 0.2
24/01:00am 24.0 21.3 19.7 77 2.8 ESE 33 41 18 22 1017.0 - 0.2
24/12:30am 24.0 20.7 19.3 75 3.0 SE 35 41 19 22 1017.4 - 0.2
24/12:00am 24.2 21.5 19.7 76 2.9 SE 33 41 18 22 1017.7 1017.6 0.2
 
Date/Time
EST
Temp
°C
App
Temp
°C
Dew
Point
Rel
Hum
%
Delta-T
°C
Wind Press
QNH
hPa
Press
MSL
hPa
Rain
since 9 am
mm
Dir
 
Spd
km/h
Gust
km/h
Spd
kts
Gust
kts
23/11:30pm 24.3 22.0 20.2 78 2.7 SE 32 37 17 20 1018.1 - 0.2
23/11:00pm 24.2 21.1 19.7 76 2.9 SE 35 43 19 23 1018.2 - 0.2
23/10:30pm 24.2 21.7 19.7 76 2.9 ESE 32 41 17 22 1018.3 - 0.2
23/10:00pm 24.3 21.9 20.0 77 2.8 SE 32 41 17 22 1018.4 - 0.2
23/09:30pm 24.3 22.0 20.2 78 2.7 ESE 32 43 17 23 1018.2 - 0.2
23/09:00pm 24.0 21.9 19.7 77 2.8 ESE 30 39 16 21 1018.0 1017.9 0.2
23/08:30pm 24.1 20.9 19.4 75 3.0 ESE 35 43 19 23 1017.7 - 0.2
23/08:00pm 23.8 21.2 19.9 79 2.5 ESE 33 43 18 23 1017.4 - 0.2
23/07:30pm 24.4 22.1 20.1 77 2.8 SE 32 37 17 20 1017.2 - 0.2
23/07:00pm 24.4 22.4 19.9 76 2.9 SE 30 39 16 21 1016.9 - 0.2
23/06:30pm 24.5 22.0 19.8 75 3.0 ESE 32 39 17 21 1016.6 - 0.2
23/06:00pm 24.5 22.6 20.2 77 2.8 SE 30 39 16 21 1016.2 1016.1 0.2
23/05:30pm 25.0 21.6 19.1 70 3.8 ESE 35 44 19 24 1016.0 - 0.2
23/05:00pm 25.4 22.0 19.1 68 4.0 ESE 35 43 19 23 1015.6 - 0.2
23/04:30pm 25.7 21.5 18.1 63 4.8 ESE 37 44 20 24 1015.3 - 0.2
23/04:00pm 26.0 22.3 18.4 63 4.8 ESE 35 43 19 23 1015.1 - 0.2
23/03:30pm 26.6 21.8 19.2 64 4.8 SE 43 50 23 27 1015.1 - 0.2
23/03:00pm 27.0 23.1 19.6 64 4.8 ESE 39 50 21 27 1015.3 1015.2 0.2
23/02:30pm 27.1 22.0 18.7 60 5.4 SE 43 52 23 28 1015.2 - 0.2
23/02:00pm 27.4 23.5 19.5 62 5.1 SE 39 48 21 26 1015.4 - 0.2
23/01:30pm 27.3 25.3 19.9 64 4.8 ESE 30 37 16 20 1015.9 - 0.2
23/01:00pm 27.8 25.6 19.6 61 5.3 SE 30 37 16 20 1016.2 - 0.2
23/12:30pm 27.0 24.0 19.1 62 5.1 SE 33 41 18 22 1016.8 - 0.2
23/12:00pm 25.9 22.5 19.1 66 4.4 ESE 35 48 19 26 1017.2 1017.1 0.0
23/11:30am 26.0 23.1 18.9 65 4.5 SE 32 39 17 21 1017.6 - 0.0
23/11:00am 25.9 24.4 19.5 68 4.1 E 26 33 14 18 1017.8 - 0.0
23/10:45am 26.1 24.6 20.2 70 3.8 E 28 35 15 19 1017.8 - 0.0
23/10:30am 25.4 21.3 18.3 65 4.5 ESE 37 41 20 22 1017.9 - 0.0
23/10:00am 24.9 21.0 19.5 72 3.5 SSE 39 44 21 24 1018.0 - 0.0
23/09:30am 24.8 21.7 19.6 73 3.3 SSE 35 43 19 23 1018.0 - 0.0
23/09:00am 24.1 21.4 19.2 74 3.1 SSE 32 35 17 19 1018.1 1018.0 0.0
23/08:30am 24.3 23.0 19.8 76 2.9 SSE 26 32 14 17 1018.1 - 0.0
23/08:00am 24.4 22.8 19.2 73 3.3 SSE 26 28 14 15 1017.9 - 0.0
23/07:30am 24.9 22.7 18.6 68 4.0 ESE 28 33 15 18 1017.6 - 0.0
23/07:00am 24.6 22.0 17.8 66 4.3 ESE 28 33 15 18 1017.4 - 0.0
23/06:30am 24.3 21.4 18.0 68 4.0 ESE 30 35 16 19 1017.1 - 0.0
23/06:00am 24.0 21.7 18.4 71 3.5 ESE 28 35 15 19 1016.8 1016.7 0.0
23/05:30am 23.8 21.3 18.0 70 3.6 ESE 28 35 15 19 1016.6 - 0.0
23/05:00am 23.8 20.3 17.5 68 3.9 ESE 32 39 17 21 1016.4 - 0.0
23/04:30am 23.4 20.6 18.1 72 3.3 ESE 30 41 16 22 1016.2 - 0.0
23/04:00am 23.7 19.4 17.9 70 3.6 ESE 37 43 20 23 1016.0 - 0.0
23/03:30am 23.8 20.7 18.9 74 3.1 ESE 33 43 18 23 1016.0 - 0.0
23/03:00am 23.6 21.1 18.9 75 3.0 ESE 30 35 16 19 1015.9 1015.8 0.0
23/02:30am 23.4 22.0 18.7 75 3.0 ESE 24 35 13 19 1016.1 - 0.0
23/02:00am 23.5 21.2 18.4 73 3.2 ESE 28 35 15 19 1016.7 - 0.0
23/01:30am 23.5 21.1 19.0 76 2.9 ESE 30 37 16 20 1017.0 - 0.0
23/01:00am 22.8 20.2 19.4 81 2.2 ESE 32 43 17 23 1017.4 - 0.0
23/12:30am 24.0 21.9 18.9 73 3.2 ESE 28 35 15 19 1018.0 - 0.0
23/12:00am 24.3 20.5 18.0 68 3.9 ESE 35 46 19 25 1018.4 1018.3 0.0
 
Date/Time
EST
Temp
°C
App
Temp
°C
Dew
Point
Rel
Hum
%
Delta-T
°C
Wind Press
QNH
hPa
Press
MSL
hPa
Rain
since 9 am
mm
Dir
 
Spd
km/h
Gust
km/h
Spd
kts
Gust
kts
22/11:30pm 24.2 20.3 17.9 68 3.9 ESE 35 46 19 25 1018.5 - 0.0
22/11:00pm 24.4 20.7 18.3 69 3.8 ESE 35 43 19 23 1018.8 - 0.0
22/10:30pm 24.0 22.0 19.9 78 2.6 ESE 30 41 16 22 1018.9 - 0.0
22/10:00pm 24.6 21.9 19.2 72 3.5 ESE 32 41 17 22 1019.0 - 0.0
22/09:30pm 24.6 21.6 19.0 71 3.6 SE 33 41 18 22 1018.8 - 0.0
22/09:00pm 24.6 20.7 18.8 70 3.7 SE 37 50 20 27 1018.5 1018.4 0.0
22/08:30pm 24.7 20.9 18.9 70 3.7 SE 37 46 20 25 1018.4 - 0.0
22/08:00pm 24.6 20.4 18.1 67 4.1 SE 37 46 20 25 1018.1 - 0.0
22/07:30pm 24.7 20.8 17.9 66 4.3 SE 35 43 19 23 1017.8 - 0.0
22/07:00pm 24.9 20.7 18.8 69 3.9 SE 39 46 21 25 1017.5 - 0.0
22/06:30pm 24.9 21.0 18.8 69 3.9 SE 37 46 20 25 1017.3 - 0.0
22/06:00pm 25.1 21.1 18.5 67 4.2 SE 37 44 20 24 1017.0 1016.9 0.0
22/05:30pm 25.5 20.9 17.9 63 4.8 ESE 39 46 21 25 1016.7 - 0.0
22/05:00pm 26.0 21.4 17.9 61 5.1 SE 39 48 21 26 1016.4 - 0.0
22/04:30pm 26.4 21.6 17.5 58 5.6 SE 39 48 21 26 1016.2 - 0.0
22/04:00pm 26.6 21.4 17.4 57 5.8 SE 41 48 22 26 1016.2 - 0.0
22/03:30pm 27.5 23.3 18.8 59 5.6 SE 39 48 21 26 1016.2 - 0.0
22/03:00pm 27.2 22.2 17.1 54 6.3 SE 39 46 21 25 1016.2 1016.1 0.0
22/02:30pm 27.7 22.9 17.5 53 6.4 SE 39 46 21 25 1016.5 - 0.0
22/02:00pm 27.9 23.7 18.0 55 6.3 SE 37 44 20 24 1016.8 - 0.0
22/01:30pm 27.8 23.2 17.9 54 6.3 SE 39 46 21 25 1017.0 - 0.0
22/01:00pm 27.8 23.0 17.6 53 6.4 SE 39 46 21 25 1017.5 - 0.0
22/12:30pm 27.9 22.8 16.8 50 6.9 SE 39 46 21 25 1017.8 - 0.0
22/12:00pm 28.1 23.2 17.3 52 6.8 SE 39 46 21 25 1018.1 1018.0 0.0
22/11:30am 28.0 25.3 18.4 56 6.1 SE 30 37 16 20 1018.5 - 0.0
22/11:00am 27.5 24.7 17.4 54 6.3 SE 28 35 15 19 1018.8 - 0.0
22/10:30am 27.7 25.0 18.4 57 5.9 SE 30 37 16 20 1019.0 - 0.0
22/10:00am 27.1 24.4 18.4 59 5.5 SE 30 35 16 19 1019.2 - 0.0
22/09:30am 26.8 24.0 18.1 59 5.5 SE 30 35 16 19 1019.3 - 0.0
22/09:00am 26.9 24.6 18.5 60 5.3 SE 28 35 15 19 1019.3 1019.2 0.0
22/08:30am 25.6 23.0 17.8 62 4.9 ESE 28 35 15 19 1019.1 - 0.0
22/08:00am 26.1 23.3 18.2 61 5.0 SE 30 35 16 19 1018.8 - 0.0
22/07:30am 24.7 21.6 17.4 64 4.5 SE 30 37 16 20 1018.4 - 0.0
22/07:00am 24.5 21.5 17.7 66 4.2 SE 30 35 16 19 1018.0 - 0.0
22/06:30am 24.2 20.7 17.4 65 4.2 SE 32 37 17 20 1017.5 - 0.0
22/06:00am 23.9 20.5 17.6 68 3.9 SE 32 41 17 22 1017.2 1017.1 0.0
22/05:30am 24.0 20.0 17.5 67 4.0 SE 35 43 19 23 1016.9 - 0.0
22/05:00am 23.9 20.2 18.3 71 3.5 SE 35 43 19 23 1016.6 - 0.0
22/04:30am 23.8 20.0 18.2 71 3.5 SE 35 41 19 22 1016.4 - 0.0
22/04:00am 23.9 20.3 18.5 72 3.4 ESE 35 43 19 23 1016.3 - 0.0
22/03:30am 23.9 20.0 18.8 73 3.2 SE 37 46 20 25 1016.4 - 0.0
22/03:00am 23.7 20.6 18.8 74 3.1 ESE 33 44 18 24 1016.5 1016.4 0.0
22/02:30am 23.8 20.0 18.9 74 3.1 ESE 37 46 20 25 1016.6 - 0.0
22/02:17am 24.0 20.6 18.9 73 3.2 ESE 35 54 19 29 1016.7 - 0.0
22/02:00am 24.1 20.8 19.2 74 3.1 ESE 35 46 19 25 1016.9 - 0.0
22/01:30am 24.2 20.1 19.1 73 3.3 SE 39 48 21 26 1017.3 - 0.0
22/01:00am 24.3 20.4 18.7 71 3.6 ESE 37 46 20 25 1017.8 - 0.0
22/12:30am 24.4 20.2 18.8 71 3.6 ESE 39 46 21 25 1018.3 - 0.0
22/12:00am 24.5 20.0 19.1 72 3.4 ESE 41 48 22 26 1018.8 1018.7 0.0
 
Date/Time
EST
Temp
°C
App
Temp
°C
Dew
Point
Rel
Hum
%
Delta-T
°C
Wind Press
QNH
hPa
Press
MSL
hPa
Rain
since 9 am
mm
Dir
 
Spd
km/h
Gust
km/h
Spd
kts
Gust
kts
21/11:30pm 24.2 21.5 19.7 76 2.9 ESE 33 46 18 25 1019.2 - 0.0
21/11:00pm 24.6 21.4 19.4 73 3.3 SE 35 44 19 24 1019.5 - 0.0
21/10:30pm 24.7 20.5 18.9 70 3.7 SE 39 44 21 24 1019.6 - 0.0
21/10:00pm 24.6 20.4 19.0 71 3.6 SE 39 46 21 25 1019.5 - 0.0
21/09:30pm 24.8 20.9 18.7 69 3.9 ESE 37 48 20 26 1019.4 - 0.0
21/09:00pm 24.8 19.5 18.5 68 4.0 SE 44 52 24 28 1019.1 1019.0 0.0
21/08:30pm 24.8 20.5 18.7 69 3.9 ESE 39 48 21 26 1018.8 - 0.0
21/08:00pm 24.8 20.4 19.2 71 3.6 SE 41 50 22 27 1018.6 - 0.0
21/07:30pm 24.7 21.0 20.0 75 3.0 SE 39 50 21 27 1018.4 - 0.0
21/07:00pm 24.8 21.7 20.5 77 2.8 ESE 37 52 20 28 1018.0 - 0.0
21/06:30pm 24.3 20.6 20.0 77 2.8 ESE 39 46 21 25 1017.8 - 0.0
21/06:13pm 24.5 21.8 20.4 78 2.7 ESE 35 44 19 24 1017.6 - 0.0
21/06:00pm 24.9 20.6 20.4 76 2.9 SE 43 50 23 27 1017.4 1017.3 0.0
21/05:30pm 25.2 20.7 19.8 72 3.5 SE 43 50 23 27 1017.1 - 0.0
21/05:00pm 25.6 21.9 19.9 70 3.7 SE 39 44 21 24 1016.9 - 0.0
21/04:30pm 26.0 23.1 20.1 70 3.8 SE 35 41 19 22 1016.8 - 0.0
21/04:00pm 26.2 23.2 19.8 68 4.2 ESE 35 44 19 24 1016.8 - 0.0
21/03:30pm 26.9 23.9 19.8 65 4.6 ESE 35 46 19 25 1016.8 - 0.0
21/03:00pm 26.9 23.0 18.7 60 5.2 SE 37 44 20 24 1016.7 1016.6 0.0
21/02:30pm 28.4 25.5 20.1 60 5.4 ESE 35 44 19 24 1016.9 - 0.0
21/02:00pm 27.9 23.6 18.6 57 6.0 ESE 39 46 21 25 1017.1 - 0.0
21/01:30pm 27.7 24.2 19.5 61 5.3 ESE 37 44 20 24 1017.3 - 0.0
21/01:00pm 27.1 23.9 19.4 62 5.0 ESE 35 43 19 23 1017.7 - 0.0
21/12:30pm 27.4 24.0 18.9 59 5.5 ESE 35 46 19 25 1018.0 - 0.0
21/12:00pm 26.8 23.6 18.6 60 5.2 ESE 33 41 18 22 1018.5 1018.4 0.0
21/11:30am 26.1 23.2 19.2 65 4.4 ESE 33 43 18 23 1018.8 - 0.0
21/11:00am 28.3 26.2 19.0 57 6.0 SE 28 39 15 21 1019.0 - 0.0
21/10:30am 28.2 25.2 18.6 56 6.2 SE 32 37 17 20 1019.1 - 0.0
21/10:00am 27.7 24.5 17.2 52 6.6 ESE 30 37 16 20 1019.1 - 0.0
21/09:30am 27.6 24.0 17.2 53 6.5 ESE 32 39 17 21 1019.1 - 0.0
21/09:00am 27.1 24.1 17.8 56 5.9 ESE 30 37 16 20 1019.0 1018.9 3.0
21/08:30am 26.2 22.6 17.3 58 5.6 ESE 32 41 17 22 1018.8 - 3.0
21/08:00am 25.6 23.5 18.0 63 4.8 ESE 26 35 14 19 1018.6 - 3.0
21/07:30am 24.9 22.0 18.8 69 3.9 ESE 32 39 17 21 1018.2 - 3.0
21/07:00am 24.5 21.6 18.9 71 3.6 ESE 32 37 17 20 1017.7 - 3.0
21/06:30am 24.1 20.6 17.8 68 3.9 SE 33 39 18 21 1017.3 - 3.0

Other Formats:

Comma delimited format used in spreadsheet applications
http://www.bom.gov.au/fwo/IDQ60801/IDQ60801.94285.axf

JavaScript Object Notation format (JSON) in row-major order
http://www.bom.gov.au/fwo/IDQ60801/IDQ60801.94285.json